Time;durP1;ratioP1;P1;durP2;ratioP2;P2;SDS_P1;SDS_P2;PMS_P1;PMS_P2;Temp;Humidity;BMP_temperature;BMP_pressure;BME280_temperature;BME280_humidity;BME280_pressure;Samples;Min_cycle;Max_cycle;Signal;HPM_P1;HPM_P2
2022/09/16 00:00:26;;;;;;;0.50;0.50;;;11.90;99.90;;;;;;4994350;28;20867;-82
2022/09/16 00:02:52;;;;;;;0.50;0.50;;;11.80;99.90;;;;;;5016612;28;20105;-81
2022/09/16 00:05:18;;;;;;;0.40;0.40;;;11.80;99.90;;;;;;5007563;28;20047;-81
2022/09/16 00:07:44;;;;;;;0.50;0.50;;;11.80;99.90;;;;;;4977445;28;20560;-80
2022/09/16 00:10:10;;;;;;;0.50;0.50;;;11.80;99.90;;;;;;5002128;28;20098;-80
2022/09/16 00:12:37;;;;;;;0.50;0.50;;;11.80;99.90;;;;;;5011593;28;20062;-81
2022/09/16 00:15:04;;;;;;;0.50;0.50;;;11.90;99.90;;;;;;5012608;28;20058;-81
2022/09/16 00:17:30;;;;;;;0.50;0.50;;;11.80;99.90;;;;;;4998520;28;20051;-81
2022/09/16 00:19:57;;;;;;;0.50;0.50;;;11.80;99.90;;;;;;4995946;28;20122;-81
2022/09/16 00:22:29;;;;;;;0.50;0.50;;;11.80;99.90;;;;;;5009214;28;20075;-80
2022/09/16 00:24:55;;;;;;;0.50;0.50;;;11.80;99.90;;;;;;4997610;28;20244;-80
2022/09/16 00:27:20;;;;;;;0.50;0.50;;;11.80;99.90;;;;;;4997923;28;20055;-80
2022/09/16 00:29:46;;;;;;;0.50;0.50;;;11.80;99.90;;;;;;4991072;28;20864;-81
2022/09/16 00:32:12;;;;;;;0.50;0.50;;;11.80;99.90;;;;;;4984941;28;20131;-81
2022/09/16 00:34:38;;;;;;;0.50;0.50;;;11.90;99.90;;;;;;4999576;28;20101;-80
2022/09/16 00:37:07;;;;;;;0.50;0.50;;;11.90;99.90;;;;;;4996646;28;20406;-80
2022/09/16 00:39:34;;;;;;;0.50;0.50;;;11.90;99.90;;;;;;4991357;28;20704;-80
2022/09/16 00:42:01;;;;;;;0.50;0.50;;;12.00;99.90;;;;;;4990894;28;20071;-80
2022/09/16 00:45:03;;;;;;;0.50;0.50;;;12.00;99.90;;;;;;4995244;28;20572;-80
2022/09/16 00:47:38;;;;;;;0.50;0.50;;;12.00;99.90;;;;;;4997114;28;20051;-80
2022/09/16 00:50:10;;;;;;;0.50;0.50;;;12.00;99.90;;;;;;5007061;28;20047;-80
2022/09/16 00:52:37;;;;;;;0.50;0.50;;;12.00;99.90;;;;;;4993924;28;20474;-79
2022/09/16 00:55:07;;;;;;;0.50;0.50;;;12.00;99.90;;;;;;5000881;28;20051;-80
2022/09/16 00:57:33;;;;;;;0.50;0.50;;;12.00;99.90;;;;;;5012700;28;20122;-81
2022/09/16 01:00:00;;;;;;;0.50;0.50;;;12.10;99.90;;;;;;4990952;28;20917;-81
2022/09/16 01:02:27;;;;;;;0.50;0.50;;;12.10;99.90;;;;;;4989793;28;20109;-80
2022/09/16 01:04:59;;;;;;;0.60;0.60;;;12.20;99.90;;;;;;4986609;28;20500;-81
2022/09/16 01:07:41;;;;;;;0.50;0.50;;;12.20;99.90;;;;;;4993279;28;20087;-81
2022/09/16 01:10:07;;;;;;;0.50;0.50;;;12.20;99.90;;;;;;5011998;28;20054;-82
2022/09/16 01:12:35;;;;;;;0.50;0.50;;;12.20;99.90;;;;;;4988723;28;20853;-81
2022/09/16 01:15:02;;;;;;;0.50;0.50;;;12.30;99.90;;;;;;4996328;28;20340;-81
2022/09/16 01:17:55;;;;;;;0.50;0.50;;;12.30;99.90;;;;;;4998216;28;20158;-80
2022/09/16 01:20:39;;;;;;;0.50;0.50;;;12.40;99.90;;;;;;5013449;28;20242;-80
2022/09/16 01:23:17;;;;;;;0.40;0.40;;;12.40;99.90;;;;;;4996333;28;20169;-80
2022/09/16 01:26:07;;;;;;;0.50;0.50;;;12.40;99.90;;;;;;5012934;28;20048;-80
2022/09/16 01:28:39;;;;;;;0.50;0.50;;;12.50;99.90;;;;;;5013835;28;20062;-81
2022/09/16 01:31:27;;;;;;;0.50;0.50;;;12.50;99.90;;;;;;4995515;28;20039;-80
2022/09/16 01:34:28;;;;;;;0.60;0.60;;;12.50;99.90;;;;;;5002017;28;20648;-80
2022/09/16 01:37:11;;;;;;;0.50;0.50;;;12.50;99.90;;;;;;4960859;28;20063;-79
2022/09/16 01:39:55;;;;;;;0.50;0.50;;;12.50;99.90;;;;;;4970083;28;20063;-80
2022/09/16 01:42:21;;;;;;;0.50;0.50;;;12.50;99.90;;;;;;4978037;28;20605;-81
2022/09/16 01:45:19;;;;;;;0.50;0.50;;;12.50;99.90;;;;;;4995551;28;20075;-80
2022/09/16 01:48:10;;;;;;;0.50;0.50;;;12.50;99.90;;;;;;4961631;28;20577;-81
2022/09/16 01:50:45;;;;;;;0.50;0.50;;;12.50;99.90;;;;;;5003453;28;20114;-81
2022/09/16 01:53:22;;;;;;;0.50;0.50;;;12.40;99.90;;;;;;5015591;28;20151;-81
2022/09/16 01:55:59;;;;;;;0.50;0.50;;;12.30;99.90;;;;;;4992048;28;20055;-81
2022/09/16 01:58:33;;;;;;;0.45;0.45;;;12.30;99.90;;;;;;5003084;28;20122;-80
2022/09/16 02:01:06;;;;;;;0.50;0.50;;;12.30;99.90;;;;;;5007918;28;21018;-80
2022/09/16 02:03:35;;;;;;;0.50;0.50;;;12.30;99.90;;;;;;4999024;28;20051;-80
2022/09/16 02:06:18;;;;;;;0.50;0.50;;;12.30;99.90;;;;;;5010287;28;20158;-80
2022/09/16 02:08:53;;;;;;;0.50;0.50;;;12.30;99.90;;;;;;4992463;28;20047;-80
2022/09/16 02:11:20;;;;;;;0.50;0.50;;;12.30;99.90;;;;;;5007469;28;20055;-80
2022/09/16 02:14:02;;;;;;;0.50;0.50;;;12.30;99.90;;;;;;5012173;28;20626;-80
2022/09/16 02:16:58;;;;;;;0.50;0.50;;;12.30;99.90;;;;;;5003878;28;20120;-81
2022/09/16 02:19:42;;;;;;;0.50;0.50;;;12.30;99.90;;;;;;5011657;28;20062;-80
2022/09/16 02:22:12;;;;;;;0.50;0.50;;;12.30;99.90;;;;;;5017341;28;20864;-80
2022/09/16 02:24:41;;;;;;;0.50;0.50;;;12.30;99.90;;;;;;4987094;28;21325;-80
2022/09/16 02:27:12;;;;;;;0.50;0.50;;;12.40;99.90;;;;;;4989811;28;20082;-80
2022/09/16 02:29:46;;;;;;;0.50;0.50;;;12.40;99.90;;;;;;5014435;28;20567;-81
2022/09/16 02:32:13;;;;;;;0.50;0.50;;;12.40;99.90;;;;;;4986938;28;20585;-80
2022/09/16 02:34:44;;;;;;;0.50;0.50;;;12.40;99.90;;;;;;4992856;28;20559;-80
2022/09/16 02:37:16;;;;;;;0.50;0.50;;;12.40;99.90;;;;;;4997542;28;20629;-80
2022/09/16 02:39:45;;;;;;;0.50;0.50;;;12.30;99.90;;;;;;4995827;28;20043;-80
2022/09/16 02:42:11;;;;;;;0.50;0.50;;;12.30;99.90;;;;;;5000823;28;20040;-80
2022/09/16 02:44:37;;;;;;;0.50;0.50;;;12.20;99.90;;;;;;5008309;28;20445;-80
2022/09/16 02:47:15;;;;;;;0.50;0.50;;;12.20;99.90;;;;;;5014344;28;20086;-80
2022/09/16 02:50:10;;;;;;;0.50;0.50;;;12.10;99.90;;;;;;4988339;28;20047;-80
2022/09/16 02:52:44;;;;;;;0.50;0.50;;;12.10;99.90;;;;;;5003288;28;20459;-80
2022/09/16 02:55:14;;;;;;;0.60;0.60;;;12.10;99.90;;;;;;4974737;28;20916;-82
2022/09/16 02:57:40;;;;;;;0.50;0.50;;;12.10;99.90;;;;;;4980810;28;20070;-81
2022/09/16 03:00:07;;;;;;;0.50;0.50;;;12.10;99.90;;;;;;4994870;28;20558;-80
2022/09/16 03:02:34;;;;;;;0.50;0.50;;;12.10;99.90;;;;;;4992806;28;20730;-81
2022/09/16 03:05:00;;;;;;;0.50;0.50;;;12.00;99.90;;;;;;4994183;28;20051;-82
2022/09/16 03:07:26;;;;;;;0.50;0.50;;;12.00;99.90;;;;;;5020494;28;20468;-81
2022/09/16 03:09:52;;;;;;;0.50;0.50;;;11.90;99.90;;;;;;4995505;28;20793;-81
2022/09/16 03:13:10;;;;;;;0.50;0.50;;;11.80;99.90;;;;;;4993212;28;20257;-82
2022/09/16 03:15:53;;;;;;;0.50;0.50;;;11.70;99.90;;;;;;4970572;28;20198;-82
2022/09/16 03:18:57;;;;;;;0.50;0.50;;;11.70;99.90;;;;;;4973663;28;20401;-80
2022/09/16 03:21:56;;;;;;;0.50;0.50;;;11.60;99.90;;;;;;4997518;28;20039;-81
2022/09/16 03:24:30;;;;;;;0.50;0.50;;;11.60;99.90;;;;;;5002705;28;20047;-81
2022/09/16 03:26:56;;;;;;;;;;;11.60;99.90;;;;;;4997491;28;20365;-81
2022/09/16 03:29:32;;;;;;;0.50;0.50;;;11.50;99.90;;;;;;4996133;28;19923;-81
2022/09/16 03:32:17;;;;;;;0.50;0.50;;;11.50;99.90;;;;;;4997398;28;20059;-80
2022/09/16 03:34:50;;;;;;;0.50;0.50;;;11.50;99.90;;;;;;5010963;28;21707;-81
2022/09/16 03:37:18;;;;;;;0.50;0.50;;;11.50;99.90;;;;;;4978273;28;20555;-81
2022/09/16 03:39:55;;;;;;;0.50;0.50;;;11.50;99.90;;;;;;4994057;28;20516;-81
2022/09/16 03:42:21;;;;;;;0.40;0.40;;;11.50;99.90;;;;;;4992898;28;20055;-81
2022/09/16 03:44:47;;;;;;;0.50;0.50;;;11.50;99.90;;;;;;4977933;28;20258;-80
2022/09/16 03:47:13;;;;;;;0.50;0.50;;;11.60;99.90;;;;;;4999020;28;20456;-81
2022/09/16 03:49:39;;;;;;;0.50;0.50;;;11.60;99.90;;;;;;5005670;28;20066;-80
2022/09/16 03:52:06;;;;;;;0.50;0.50;;;11.70;99.90;;;;;;5020407;28;20520;-80
2022/09/16 03:54:32;;;;;;;0.50;0.50;;;11.80;99.90;;;;;;5006183;28;20507;-81
2022/09/16 03:56:59;;;;;;;0.50;0.50;;;11.80;99.90;;;;;;5016728;28;20039;-80
2022/09/16 03:59:26;;;;;;;0.40;0.40;;;11.80;99.90;;;;;;4978846;28;20551;-81
2022/09/16 04:01:52;;;;;;;0.50;0.50;;;11.80;99.90;;;;;;5015494;28;20044;-82
2022/09/16 04:04:18;;;;;;;0.50;0.50;;;11.90;99.90;;;;;;5011247;28;20450;-81
2022/09/16 04:06:44;;;;;;;0.50;0.50;;;11.90;99.90;;;;;;5001718;28;20052;-80
2022/09/16 04:09:11;;;;;;;0.50;0.50;;;11.90;99.90;;;;;;5014688;28;20039;-80
2022/09/16 04:11:38;;;;;;;0.50;0.50;;;11.90;99.90;;;;;;4997551;28;20044;-81
2022/09/16 04:14:04;;;;;;;0.50;0.50;;;11.90;99.90;;;;;;5000248;28;20044;-80
2022/09/16 04:16:30;;;;;;;0.50;0.50;;;11.90;99.90;;;;;;4997307;28;20097;-80
2022/09/16 04:18:56;;;;;;;0.50;0.50;;;11.80;99.90;;;;;;4978861;28;20089;-80
2022/09/16 04:21:23;;;;;;;0.50;0.50;;;11.80;99.90;;;;;;4997549;28;20461;-79
2022/09/16 04:23:49;;;;;;;0.50;0.50;;;11.70;99.90;;;;;;4996882;28;20052;-80
2022/09/16 04:26:16;;;;;;;0.50;0.50;;;11.70;99.90;;;;;;5017029;28;20176;-79
2022/09/16 04:28:42;;;;;;;0.50;0.50;;;11.70;99.90;;;;;;4987159;28;20063;-79
2022/09/16 04:31:10;;;;;;;0.50;0.50;;;11.60;99.90;;;;;;4997865;28;20427;-79
2022/09/16 04:33:37;;;;;;;0.50;0.50;;;11.60;99.90;;;;;;4997571;28;20056;-80
2022/09/16 04:36:05;;;;;;;0.50;0.50;;;11.60;99.90;;;;;;4994966;28;20399;-79
2022/09/16 04:38:32;;;;;;;0.50;0.50;;;11.60;99.90;;;;;;4988969;28;20572;-79
2022/09/16 04:41:11;;;;;;;0.50;0.50;;;11.60;99.90;;;;;;4994960;28;20051;-80
2022/09/16 04:43:37;;;;;;;0.40;0.40;;;11.60;99.90;;;;;;4996701;28;20059;-80
2022/09/16 04:46:03;;;;;;;0.50;0.50;;;11.70;99.90;;;;;;4996800;28;20501;-80
2022/09/16 04:48:29;;;;;;;0.50;0.50;;;11.70;99.90;;;;;;4996892;28;20043;-80
2022/09/16 04:51:05;;;;;;;0.50;0.50;;;11.70;99.90;;;;;;4997410;28;20232;-80
2022/09/16 04:53:31;;;;;;;0.50;0.50;;;11.70;99.90;;;;;;5024364;28;20046;-80
2022/09/16 04:56:11;;;;;;;0.50;0.50;;;11.60;99.90;;;;;;5016889;28;20036;-80
2022/09/16 04:58:37;;;;;;;0.50;0.50;;;11.60;99.90;;;;;;5007044;28;20254;-80
2022/09/16 05:01:12;;;;;;;0.50;0.50;;;11.60;99.90;;;;;;5024492;28;20066;-80
2022/09/16 05:03:43;;;;;;;0.50;0.50;;;11.50;99.90;;;;;;5016535;28;20055;-79
2022/09/16 05:06:11;;;;;;;0.50;0.50;;;11.50;99.90;;;;;;5000409;28;20047;-79
2022/09/16 05:08:37;;;;;;;0.50;0.50;;;11.40;99.90;;;;;;5024561;28;20044;-81
2022/09/16 05:11:06;;;;;;;0.50;0.50;;;11.40;99.90;;;;;;4999505;28;20047;-81
2022/09/16 05:13:33;;;;;;;0.50;0.50;;;11.40;99.90;;;;;;5012341;28;20075;-80
2022/09/16 05:16:07;;;;;;;0.50;0.50;;;11.30;99.90;;;;;;4997872;28;20054;-80
2022/09/16 05:18:34;;;;;;;0.50;0.50;;;11.30;99.90;;;;;;5009942;28;20477;-80
2022/09/16 05:21:01;;;;;;;0.50;0.50;;;11.30;99.90;;;;;;4997553;28;20054;-81
2022/09/16 05:23:27;;;;;;;0.50;0.50;;;11.20;99.90;;;;;;4984784;28;20492;-80
2022/09/16 05:25:54;;;;;;;0.50;0.50;;;11.20;99.90;;;;;;5014984;28;20505;-81
2022/09/16 05:28:20;;;;;;;0.50;0.50;;;11.20;99.90;;;;;;4985891;28;20059;-81
2022/09/16 05:30:46;;;;;;;0.50;0.50;;;11.20;99.90;;;;;;4992898;28;20044;-83
2022/09/16 05:33:13;;;;;;;0.50;0.50;;;11.30;99.90;;;;;;4996106;28;20043;-82
2022/09/16 05:35:40;;;;;;;0.50;0.50;;;11.40;99.90;;;;;;4993403;28;20055;-83
2022/09/16 05:38:06;;;;;;;0.50;0.50;;;11.40;99.90;;;;;;4995483;28;20816;-81
2022/09/16 05:40:32;;;;;;;0.50;0.50;;;11.40;99.90;;;;;;4981199;28;20052;-82
2022/09/16 05:42:57;;;;;;;0.50;0.50;;;11.40;99.90;;;;;;4996109;28;20584;-81
2022/09/16 05:45:23;;;;;;;0.50;0.50;;;11.40;99.90;;;;;;4999487;28;20047;-82
2022/09/16 05:47:50;;;;;;;0.43;0.43;;;11.50;99.90;;;;;;4996051;28;20580;-82
2022/09/16 05:50:16;;;;;;;0.50;0.50;;;11.40;99.90;;;;;;4996540;28;20075;-81
2022/09/16 05:52:42;;;;;;;0.50;0.50;;;11.40;99.90;;;;;;4996651;28;20044;-82
2022/09/16 05:55:08;;;;;;;0.50;0.50;;;11.30;99.90;;;;;;4991173;28;20039;-81
2022/09/16 05:57:33;;;;;;;0.50;0.50;;;11.30;99.90;;;;;;4970541;28;20060;-82
2022/09/16 05:59:59;;;;;;;0.40;0.40;;;11.20;99.90;;;;;;5004557;28;20048;-81
2022/09/16 06:02:25;;;;;;;0.50;0.50;;;11.20;99.90;;;;;;4977975;28;20449;-82
2022/09/16 06:04:52;;;;;;;0.50;0.50;;;11.20;99.90;;;;;;4988649;28;20048;-82
2022/09/16 06:07:17;;;;;;;0.50;0.50;;;11.30;99.90;;;;;;4984833;28;20720;-84
2022/09/16 06:09:43;;;;;;;0.50;0.50;;;11.50;99.90;;;;;;4996252;28;20043;-87
2022/09/16 06:12:09;;;;;;;0.50;0.50;;;11.70;99.90;;;;;;4988557;28;20426;-82
2022/09/16 06:14:35;;;;;;;0.50;0.50;;;11.80;99.90;;;;;;4997663;28;20134;-83
2022/09/16 06:17:02;;;;;;;0.50;0.50;;;12.00;99.90;;;;;;5003711;28;20100;-82
2022/09/16 06:19:28;;;;;;;0.50;0.50;;;12.10;99.90;;;;;;5012154;28;20036;-81
2022/09/16 06:21:53;;;;;;;0.50;0.50;;;12.20;99.90;;;;;;4963292;28;20485;-82
2022/09/16 06:24:20;;;;;;;0.50;0.50;;;12.40;99.90;;;;;;5003305;28;20093;-80
2022/09/16 06:26:47;;;;;;;0.50;0.50;;;12.50;99.90;;;;;;4995335;28;20122;-83
2022/09/16 06:29:14;;;;;;;0.50;0.50;;;12.60;99.90;;;;;;4990908;28;20051;-82
2022/09/16 06:31:40;;;;;;;0.50;0.50;;;12.80;99.90;;;;;;4994759;28;20051;-82
2022/09/16 06:34:11;;;;;;;0.45;0.45;;;12.80;99.90;;;;;;4997897;28;20054;-80
2022/09/16 06:36:38;;;;;;;0.50;0.50;;;12.90;99.90;;;;;;5011737;28;20266;-79
2022/09/16 06:39:07;;;;;;;0.50;0.50;;;13.10;99.90;;;;;;4996948;28;20675;-80
2022/09/16 06:41:33;;;;;;;0.50;0.50;;;13.30;99.90;;;;;;5000389;28;20475;-80
2022/09/16 06:43:59;;;;;;;0.50;0.50;;;13.50;99.90;;;;;;4997982;28;20054;-81
2022/09/16 06:46:27;;;;;;;0.40;0.40;;;13.50;99.90;;;;;;4976025;28;20477;-81
2022/09/16 06:48:55;;;;;;;0.50;0.50;;;13.60;99.90;;;;;;4997474;28;20051;-83
2022/09/16 06:51:31;;;;;;;0.50;0.50;;;13.70;99.90;;;;;;5001506;28;20363;-81
2022/09/16 06:54:03;;;;;;;0.50;0.50;;;13.90;99.90;;;;;;5007401;28;20500;-82
2022/09/16 06:56:29;;;;;;;0.50;0.50;;;14.30;99.90;;;;;;5012689;28;20049;-81
2022/09/16 06:58:56;;;;;;;0.40;0.40;;;14.40;99.90;;;;;;5010443;28;20058;-80
2022/09/16 07:01:24;;;;;;;0.40;0.40;;;14.30;99.90;;;;;;5008629;28;20431;-80
2022/09/16 07:03:51;;;;;;;0.45;0.45;;;14.10;99.90;;;;;;5016579;28;20062;-80
2022/09/16 07:06:19;;;;;;;0.40;0.40;;;13.90;99.90;;;;;;4994958;28;20695;-82
2022/09/16 07:08:45;;;;;;;0.40;0.40;;;13.70;99.90;;;;;;5014107;28;20108;-81
2022/09/16 07:11:12;;;;;;;0.40;0.40;;;13.50;99.90;;;;;;4998204;28;20453;-79
2022/09/16 07:13:38;;;;;;;0.43;0.43;;;13.50;99.90;;;;;;4990939;28;20868;-81
2022/09/16 07:16:07;;;;;;;0.40;0.40;;;13.70;99.90;;;;;;4997932;28;20060;-82
2022/09/16 07:18:33;;;;;;;0.45;0.45;;;14.00;99.90;;;;;;4998397;28;20291;-81
2022/09/16 07:21:19;;;;;;;0.50;0.50;;;14.20;99.90;;;;;;4991908;28;20129;-80
2022/09/16 07:23:46;;;;;;;0.40;0.40;;;14.40;99.90;;;;;;5015954;28;20043;-80
2022/09/16 07:26:13;;;;;;;0.40;0.40;;;14.50;99.90;;;;;;4999689;28;20048;-81
2022/09/16 07:28:40;;;;;;;0.50;0.50;;;14.60;99.90;;;;;;5001959;28;20806;-82
2022/09/16 07:31:11;;;;;;;0.40;0.40;;;14.70;99.90;;;;;;4996631;28;20831;-80
2022/09/16 07:33:39;;;;;;;0.50;0.50;;;14.70;99.90;;;;;;4994475;28;20657;-81
2022/09/16 07:36:07;;;;;;;0.40;0.40;;;15.00;99.90;;;;;;4998480;28;20540;-83
2022/09/16 07:38:33;;;;;;;0.50;0.50;;;15.20;99.90;;;;;;4999864;28;20052;-79
2022/09/16 07:41:14;;;;;;;0.40;0.40;;;15.30;99.90;;;;;;5015918;28;20051;-81
2022/09/16 07:43:41;;;;;;;0.40;0.40;;;14.80;99.90;;;;;;4989334;28;20578;-83
2022/09/16 07:46:09;;;;;;;0.40;0.40;;;14.70;99.90;;;;;;4999334;28;20319;-83
2022/09/16 07:48:36;;;;;;;0.43;0.43;;;15.00;99.90;;;;;;4993654;28;20626;-84
2022/09/16 07:51:12;;;;;;;0.40;0.40;;;15.10;99.90;;;;;;4992362;28;20632;-82
2022/09/16 07:53:39;;;;;;;0.40;0.40;;;15.20;99.90;;;;;;4991382;28;20053;-81
2022/09/16 07:56:08;;;;;;;0.40;0.40;;;15.40;99.90;;;;;;4983353;28;20047;-81
2022/09/16 07:58:35;;;;;;;0.50;0.50;;;15.50;99.90;;;;;;5010890;28;20492;-81
2022/09/16 08:01:01;;;;;;;0.40;0.40;;;15.60;99.90;;;;;;4996586;28;20079;-80
2022/09/16 08:03:27;;;;;;;0.50;0.50;;;15.70;99.90;;;;;;5015807;28;20087;-81
2022/09/16 08:06:00;;;;;;;0.40;0.40;;;15.70;99.90;;;;;;4975983;28;20684;-79
2022/09/16 08:08:25;;;;;;;0.40;0.40;;;15.90;99.90;;;;;;5013279;28;20067;-80
2022/09/16 08:10:55;;;;;;;0.40;0.40;;;15.90;99.90;;;;;;5007971;28;20482;-80
2022/09/16 08:13:21;;;;;;;0.40;0.40;;;16.00;99.90;;;;;;4968984;28;20057;-83
2022/09/16 08:15:47;;;;;;;0.40;0.40;;;16.20;99.90;;;;;;4989399;28;20119;-82
2022/09/16 08:18:28;;;;;;;0.40;0.40;;;16.30;99.90;;;;;;4995991;28;20607;-83
2022/09/16 08:20:54;;;;;;;0.40;0.40;;;16.30;99.90;;;;;;5004286;28;20427;-81
2022/09/16 08:23:20;;;;;;;0.40;0.40;;;16.40;99.90;;;;;;4998014;28;20098;-84
2022/09/16 08:25:46;;;;;;;0.40;0.40;;;16.60;99.90;;;;;;5001200;28;20678;-80
2022/09/16 08:28:14;;;;;;;0.40;0.40;;;16.60;99.90;;;;;;5001932;28;20067;-83
2022/09/16 08:30:41;;;;;;;0.43;0.43;;;16.50;99.90;;;;;;5001278;28;20064;-81
2022/09/16 08:33:07;;;;;;;0.45;0.45;;;16.70;99.90;;;;;;4989317;28;20047;-83
2022/09/16 08:35:33;;;;;;;0.40;0.40;;;16.80;99.90;;;;;;4996346;28;20042;-81
2022/09/16 08:37:59;;;;;;;0.40;0.40;;;16.90;99.90;;;;;;5019520;28;20044;-79
2022/09/16 08:40:26;;;;;;;0.40;0.40;;;16.90;99.90;;;;;;4997775;28;20799;-80
2022/09/16 08:43:27;;;;;;;0.43;0.43;;;17.10;99.90;;;;;;5024573;28;20040;-83
2022/09/16 08:45:59;;;;;;;0.50;0.50;;;17.00;99.90;;;;;;4990729;28;20304;-84
2022/09/16 08:48:38;;;;;;;0.40;0.40;;;17.20;99.90;;;;;;5015101;28;20584;-80
2022/09/16 08:51:07;;;;;;;0.40;0.40;;;17.30;99.90;;;;;;5001049;28;20580;-81
2022/09/16 08:54:05;;;;;;;0.40;0.40;;;17.40;99.90;;;;;;4984417;28;20381;-80
2022/09/16 08:56:36;;;;;;;0.40;0.40;;;17.60;99.90;;;;;;5002303;28;20052;-81
2022/09/16 08:59:09;;;;;;;0.40;0.40;;;17.60;99.90;;;;;;5002595;28;20055;-79
2022/09/16 09:01:47;;;;;;;0.40;0.40;;;17.50;99.90;;;;;;5018745;28;20044;-82
2022/09/16 09:04:13;;;;;;;0.40;0.40;;;17.50;99.90;;;;;;5008247;28;20897;-80
2022/09/16 09:06:39;;;;;;;0.40;0.40;;;17.70;99.90;;;;;;5004829;28;20445;-80
2022/09/16 09:09:15;;;;;;;0.40;0.40;;;17.40;99.90;;;;;;5001992;28;20938;-78
2022/09/16 09:12:04;;;;;;;0.40;0.40;;;17.30;99.90;;;;;;4998884;28;20047;-80
2022/09/16 09:15:00;;;;;;;0.50;0.50;;;17.30;99.90;;;;;;5014692;28;20453;-83
2022/09/16 09:17:58;;;;;;;0.40;0.40;;;17.90;99.90;;;;;;4999350;28;20223;-82
2022/09/16 09:20:36;;;;;;;0.40;0.40;;;18.20;99.90;;;;;;4999879;28;20976;-81
2022/09/16 09:23:05;;;;;;;0.40;0.40;;;18.40;99.90;;;;;;4993276;28;20047;-80
2022/09/16 09:25:52;;;;;;;0.40;0.40;;;18.50;99.90;;;;;;5004421;28;20051;-82
2022/09/16 09:28:33;;;;;;;0.40;0.40;;;18.90;99.90;;;;;;5022374;28;20572;-82
2022/09/16 09:31:10;;;;;;;0.40;0.40;;;18.60;99.90;;;;;;4992004;28;20043;-79
2022/09/16 09:33:51;;;;;;;0.45;0.45;;;18.10;99.90;;;;;;4999669;28;20829;-80
2022/09/16 09:36:44;;;;;;;0.40;0.40;;;17.50;99.90;;;;;;4993227;28;20608;-81
2022/09/16 09:39:21;;;;;;;0.40;0.40;;;17.00;99.90;;;;;;4997979;28;20062;-78
2022/09/16 09:41:57;;;;;;;0.40;0.40;;;16.40;99.90;;;;;;4993793;28;20047;-80
2022/09/16 09:44:38;;;;;;;0.40;0.40;;;16.10;99.90;;;;;;5025142;28;20040;-81
2022/09/16 09:47:11;;;;;;;0.40;0.40;;;16.70;99.90;;;;;;5029846;28;20599;-80
2022/09/16 09:49:45;;;;;;;0.40;0.40;;;17.10;99.90;;;;;;5017286;28;20268;-82
2022/09/16 09:52:25;;;;;;;0.40;0.40;;;17.30;99.90;;;;;;5024133;28;20609;-78
2022/09/16 09:54:51;;;;;;;0.40;0.40;;;17.70;99.90;;;;;;4995695;28;20154;-79
2022/09/16 09:57:36;;;;;;;0.40;0.40;;;17.90;99.90;;;;;;5002421;28;20617;-81
2022/09/16 10:00:15;;;;;;;0.40;0.40;;;18.20;99.90;;;;;;5001640;28;20059;-78
2022/09/16 10:02:42;;;;;;;0.50;0.50;;;18.30;99.90;;;;;;5024822;28;20082;-80
2022/09/16 10:05:22;;;;;;;0.40;0.40;;;18.60;99.90;;;;;;5001404;28;20571;-82
2022/09/16 10:07:51;;;;;;;0.40;0.40;;;18.60;99.90;;;;;;5012645;28;20089;-78
2022/09/16 10:10:22;;;;;;;0.40;0.40;;;18.80;99.90;;;;;;4984724;28;20549;-81
2022/09/16 10:12:48;;;;;;;0.40;0.40;;;18.80;99.90;;;;;;5017421;28;20588;-79
2022/09/16 10:15:22;;;;;;;0.40;0.40;;;18.80;99.90;;;;;;5000756;28;20154;-82
2022/09/16 10:17:49;;;;;;;0.40;0.40;;;19.00;99.90;;;;;;4998552;28;20054;-78
2022/09/16 10:20:32;;;;;;;0.40;0.40;;;19.30;99.90;;;;;;5011619;28;20397;-82
2022/09/16 10:23:01;;;;;;;0.40;0.40;;;19.40;99.90;;;;;;5016729;28;20598;-79
2022/09/16 10:25:29;;;;;;;0.40;0.40;;;19.70;99.90;;;;;;5005125;28;21019;-81
2022/09/16 10:28:01;;;;;;;0.40;0.40;;;19.90;99.90;;;;;;4995422;28;20773;-78
2022/09/16 10:30:31;;;;;;;0.40;0.40;;;19.70;99.90;;;;;;5003120;28;20767;-80
2022/09/16 10:33:10;;;;;;;0.30;0.30;;;19.20;99.90;;;;;;5002126;28;20051;-81
2022/09/16 10:35:37;;;;;;;0.40;0.40;;;18.80;99.90;;;;;;5022333;28;20139;-79
2022/09/16 10:38:11;;;;;;;0.40;0.40;;;19.30;99.90;;;;;;4982857;28;20238;-78
2022/09/16 10:40:49;;;;;;;0.40;0.40;;;19.10;99.90;;;;;;4994844;28;20387;-79
2022/09/16 10:43:15;;;;;;;0.40;0.40;;;19.00;99.90;;;;;;4980642;28;20591;-79
2022/09/16 10:45:46;;;;;;;0.40;0.40;;;19.50;99.90;;;;;;4986992;28;20794;-82
2022/09/16 10:48:17;;;;;;;0.40;0.40;;;19.80;99.90;;;;;;4984460;28;20375;-82
2022/09/16 10:51:04;;;;;;;0.40;0.40;;;20.20;99.90;;;;;;4999222;28;20372;-83
2022/09/16 10:53:35;;;;;;;0.40;0.40;;;20.00;99.90;;;;;;5013348;28;20105;-81
2022/09/16 10:56:04;;;;;;;0.40;0.40;;;19.50;99.90;;;;;;5015833;28;20047;-82
2022/09/16 10:58:31;;;;;;;0.40;0.40;;;18.80;99.90;;;;;;5013284;28;20485;-80
2022/09/16 11:01:04;;;;;;;0.40;0.40;;;17.90;99.90;;;;;;4998915;28;20077;-82
2022/09/16 11:04:11;;;;;;;0.40;0.40;;;16.80;99.90;;;;;;4982421;28;20050;-82
2022/09/16 11:06:46;;;;;;;0.40;0.40;;;16.60;99.90;;;;;;4916509;28;20630;-81
2022/09/16 11:09:25;;;;;;;0.40;0.40;;;16.30;99.90;;;;;;4996669;28;20216;-81
2022/09/16 11:12:37;;;;;;;0.40;0.40;;;16.90;99.90;;;;;;4980647;28;20133;-82
2022/09/16 11:15:28;;;;;;;0.35;0.35;;;17.30;99.90;;;;;;5015922;28;20140;-82
2022/09/16 11:18:06;;;;;;;0.40;0.40;;;17.70;99.90;;;;;;5003147;28;20909;-81
2022/09/16 11:20:57;;;;;;;0.40;0.40;;;17.90;99.90;;;;;;4998209;28;20245;-80
2022/09/16 11:23:35;;;;;;;0.40;0.40;;;18.10;99.90;;;;;;4998562;28;20285;-79
2022/09/16 11:26:16;;;;;;;0.40;0.40;;;17.60;99.90;;;;;;5022424;28;20650;-80
2022/09/16 11:28:51;;;;;;;0.40;0.40;;;18.10;99.90;;;;;;5023162;28;20051;-81
2022/09/16 11:31:45;;;;;;;0.38;0.38;;;18.00;99.90;;;;;;5009186;28;20056;-82
2022/09/16 11:34:45;;;;;;;0.40;0.40;;;17.40;99.90;;;;;;5020933;28;20116;-84
2022/09/16 11:37:30;;;;;;;0.40;0.40;;;17.00;99.90;;;;;;4982256;28;20224;-86
2022/09/16 11:40:19;;;;;;;0.40;0.40;;;17.20;99.90;;;;;;5004948;28;20117;-83
2022/09/16 11:42:57;;;;;;;0.40;0.40;;;17.70;99.90;;;;;;4996454;28;20500;-82
2022/09/16 11:45:34;;;;;;;0.40;0.40;;;18.00;99.90;;;;;;5011348;28;20341;-84
2022/09/16 11:48:35;;;;;;;0.40;0.40;;;18.10;99.90;;;;;;4998517;28;20039;-82
2022/09/16 11:51:10;;;;;;;0.40;0.40;;;18.40;99.90;;;;;;5013019;28;20460;-83
2022/09/16 11:54:01;;;;;;;0.40;0.40;;;18.60;99.90;;;;;;5017743;28;20096;-82
2022/09/16 11:56:27;;;;;;;0.40;0.40;;;18.90;99.90;;;;;;4957791;28;20981;-81
2022/09/16 11:58:59;;;;;;;0.40;0.40;;;19.20;99.90;;;;;;4998022;28;20051;-79
2022/09/16 12:01:41;;;;;;;0.40;0.40;;;19.70;99.90;;;;;;5019235;28;20086;-80
2022/09/16 12:04:22;;;;;;;0.40;0.40;;;19.80;99.90;;;;;;4993878;28;20054;-80
2022/09/16 12:06:47;;;;;;;0.40;0.40;;;20.20;99.90;;;;;;4998228;28;20672;-87
2022/09/16 12:09:33;;;;;;;0.40;0.40;;;20.00;99.90;;;;;;4997083;28;20874;-85
2022/09/16 12:12:10;;;;;;;0.40;0.40;;;20.00;99.90;;;;;;5012282;28;20124;-82
2022/09/16 12:14:41;;;;;;;0.40;0.40;;;19.90;99.90;;;;;;5016154;28;20043;-81
2022/09/16 12:17:21;;;;;;;0.40;0.40;;;20.20;99.90;;;;;;4980425;28;20077;-79
2022/09/16 12:19:57;;;;;;;0.40;0.40;;;20.20;99.90;;;;;;5012774;28;20479;-78
2022/09/16 12:22:38;;;;;;;0.30;0.30;;;20.30;99.90;;;;;;4998806;28;20044;-77
2022/09/16 12:25:34;;;;;;;0.40;0.40;;;19.70;99.90;;;;;;4998903;28;20113;-79
2022/09/16 12:28:36;;;;;;;0.40;0.40;;;19.20;99.90;;;;;;5005148;28;20582;-80
2022/09/16 12:31:17;;;;;;;0.40;0.40;;;18.30;99.90;;;;;;4893562;28;20049;-81
2022/09/16 12:34:03;;;;;;;0.40;0.40;;;18.20;99.90;;;;;;5002912;28;21448;-81
2022/09/16 12:36:33;;;;;;;0.40;0.40;;;18.50;99.90;;;;;;5001315;28;20059;-78
2022/09/16 12:39:00;;;;;;;0.40;0.40;;;19.00;99.90;;;;;;4981119;28;20062;-80
2022/09/16 12:42:00;;;;;;;0.40;0.40;;;19.50;99.90;;;;;;5015088;28;20043;-79
2022/09/16 12:44:46;;;;;;;0.30;0.30;;;19.10;99.90;;;;;;5001250;28;20056;-81
2022/09/16 12:47:56;;;;;;;0.30;0.30;;;18.80;99.90;;;;;;5001144;28;20264;-85
2022/09/16 12:50:28;;;;;;;0.40;0.40;;;18.30;99.90;;;;;;4976591;28;20675;-80
2022/09/16 12:53:13;;;;;;;0.40;0.40;;;17.80;99.90;;;;;;5017862;28;20693;-80
2022/09/16 12:56:25;;;;;;;0.40;0.40;;;17.00;99.90;;;;;;4992338;28;20055;-84
2022/09/16 12:59:21;;;;;;;0.40;0.40;;;16.60;99.90;;;;;;4978961;28;20055;-80
2022/09/16 13:01:49;;;;;;;0.40;0.40;;;16.30;99.90;;;;;;4994049;28;20453;-82
2022/09/16 13:04:23;;;;;;;0.40;0.40;;;17.00;99.90;;;;;;4995031;28;20419;-79
2022/09/16 13:06:57;;;;;;;0.40;0.40;;;17.50;99.90;;;;;;4997806;28;20051;-81
2022/09/16 13:09:35;;;;;;;0.40;0.40;;;17.80;99.90;;;;;;4990297;28;20047;-76
2022/09/16 13:12:22;;;;;;;0.40;0.40;;;18.00;99.90;;;;;;4994519;28;20057;-83
2022/09/16 13:14:57;;;;;;;0.40;0.40;;;18.50;99.90;;;;;;5008602;28;20883;-82
2022/09/16 13:17:30;;;;;;;0.40;0.40;;;18.90;99.90;;;;;;4993354;28;21084;-81
2022/09/16 13:20:11;;;;;;;0.40;0.40;;;19.00;99.90;;;;;;4991713;28;20159;-84